Tekamah, Nebraska
Current Conditions -  °F | °C
As of 3:54 PM on Thursday 27 Nov 2014 (Local Time) from KTQE Reporting Station
Few Clouds Few Clouds  
Wind Chill:   Ceiling: Unl
Heat Index: 21°   Visibility: 10mi
Dew Point:   Wind: 14mph
Humidity: 53%   Direction: 140°SE
Pressure: 30.33"   Gusts: NA
Location:  41.78°N, 96.22°W
Report Text: KTQE 272154Z AUTO 14012KT 10SM FEW100 M06/M14 A3033 RMK AO2 SLP286 T10611144
Loading
Personal Weather Stations






























Interactive Weather Map New forecast layout! Learn more

10-Day Weather Forecast

Advertisements
Track Severe Weather on mobile